sensor_id;sensor_type;location;lat;lon;timestamp;pressure;altitude;pressure_sealevel;temperature;humidity
47710;BME280;33473;51.640;5.892;2022-08-18T00:02:38;101100;;;23.8;60.0
47710;BME280;33473;51.640;5.892;2022-08-18T00:15:58;101100;;;23.9;60.0
47710;BME280;33473;51.640;5.892;2022-08-18T00:29:19;101100;;;24.1;60.0
47710;BME280;33473;51.640;5.892;2022-08-18T00:42:39;101100;;;24.1;60.0
47710;BME280;33473;51.640;5.892;2022-08-18T00:55:58;101100;;;24.2;60.0
47710;BME280;33473;51.640;5.892;2022-08-18T01:09:20;101100;;;24.3;60.0
47710;BME280;33473;51.640;5.892;2022-08-18T01:22:39;101100;;;24.3;60.0
47710;BME280;33473;51.640;5.892;2022-08-18T01:36:00;101100;;;24.4;60.0
47710;BME280;33473;51.640;5.892;2022-08-18T01:49:20;101100;;;24.5;60.0
47710;BME280;33473;51.640;5.892;2022-08-18T02:02:42;101100;;;24.4;60.0
47710;BME280;33473;51.640;5.892;2022-08-18T02:16:03;101100;;;24.5;60.0
47710;BME280;33473;51.640;5.892;2022-08-18T02:29:23;101100;;;24.5;59.0
47710;BME280;33473;51.640;5.892;2022-08-18T02:42:44;101200;;;24.5;59.0
47710;BME280;33473;51.640;5.892;2022-08-18T02:56:04;101200;;;24.5;59.0
47710;BME280;33473;51.640;5.892;2022-08-18T03:09:23;101200;;;24.4;59.0
47710;BME280;33473;51.640;5.892;2022-08-18T03:22:43;101200;;;24.2;59.0
47710;BME280;33473;51.640;5.892;2022-08-18T03:36:03;101200;;;24.2;59.0
47710;BME280;33473;51.640;5.892;2022-08-18T03:49:22;101200;;;24.2;58.0
47710;BME280;33473;51.640;5.892;2022-08-18T04:02:44;101200;;;24.1;59.0
47710;BME280;33473;51.640;5.892;2022-08-18T04:16:05;101100;;;24.1;58.0
47710;BME280;33473;51.640;5.892;2022-08-18T04:29:25;101100;;;23.8;57.0
47710;BME280;33473;51.640;5.892;2022-08-18T04:42:44;101200;;;23.6;58.0
47710;BME280;33473;51.640;5.892;2022-08-18T04:56:04;101200;;;23.6;58.0
47710;BME280;33473;51.640;5.892;2022-08-18T05:09:24;101200;;;23.7;59.0
47710;BME280;33473;51.640;5.892;2022-08-18T05:22:43;101200;;;23.8;59.0
47710;BME280;33473;51.640;5.892;2022-08-18T05:36:03;101200;;;23.9;59.0
47710;BME280;33473;51.640;5.892;2022-08-18T05:49:24;101200;;;24.0;59.0
47710;BME280;33473;51.640;5.892;2022-08-18T06:02:46;101200;;;24.0;59.0
47710;BME280;33473;51.640;5.892;2022-08-18T06:16:05;101200;;;24.1;58.0
47710;BME280;33473;51.640;5.892;2022-08-18T06:29:27;101200;;;24.2;59.0
47710;BME280;33473;51.640;5.892;2022-08-18T06:42:46;101200;;;24.5;59.0
47710;BME280;33473;51.640;5.892;2022-08-18T06:56:07;101200;;;24.9;57.0
47710;BME280;33473;51.640;5.892;2022-08-18T07:09:29;101200;;;25.0;56.0
47710;BME280;33473;51.640;5.892;2022-08-18T07:22:48;101200;;;25.2;56.0
47710;BME280;33473;51.640;5.892;2022-08-18T07:36:10;101200;;;25.8;54.0
47710;BME280;33473;51.640;5.892;2022-08-18T07:49:29;101200;;;25.8;54.0
47710;BME280;33473;51.640;5.892;2022-08-18T08:02:49;101200;;;26.1;53.0
47710;BME280;33473;51.640;5.892;2022-08-18T08:16:10;101200;;;26.6;51.0
47710;BME280;33473;51.640;5.892;2022-08-18T08:29:30;101200;;;26.7;51.0
47710;BME280;33473;51.640;5.892;2022-08-18T08:42:51;101300;;;26.7;49.0
47710;BME280;33473;51.640;5.892;2022-08-18T08:56:13;101300;;;27.6;49.0
47710;BME280;33473;51.640;5.892;2022-08-18T09:09:34;101300;;;28.0;45.0
47710;BME280;33473;51.640;5.892;2022-08-18T09:22:55;101300;;;28.0;47.0
47710;BME280;33473;51.640;5.892;2022-08-18T09:36:15;101300;;;28.6;45.0
47710;BME280;33473;51.640;5.892;2022-08-18T09:49:34;101200;;;28.6;44.0
47710;BME280;33473;51.640;5.892;2022-08-18T10:02:54;101300;;;28.7;43.0
47710;BME280;33473;51.640;5.892;2022-08-18T10:16:15;101200;;;29.0;43.0
47710;BME280;33473;51.640;5.892;2022-08-18T10:29:37;101200;;;28.6;43.0
47710;BME280;33473;51.640;5.892;2022-08-18T10:42:56;101200;;;28.6;42.0
47710;BME280;33473;51.640;5.892;2022-08-18T10:56:18;101200;;;29.0;42.0
47710;BME280;33473;51.640;5.892;2022-08-18T11:09:37;101200;;;29.7;40.0
47710;BME280;33473;51.640;5.892;2022-08-18T11:22:57;101200;;;29.9;38.0
47710;BME280;33473;51.640;5.892;2022-08-18T11:36:18;101200;;;30.7;38.0
47710;BME280;33473;51.640;5.892;2022-08-18T11:49:38;101200;;;31.3;36.0
47710;BME280;33473;51.640;5.892;2022-08-18T12:02:59;101100;;;31.2;37.0
47710;BME280;33473;51.640;5.892;2022-08-18T12:16:20;101200;;;31.5;37.0
47710;BME280;33473;51.640;5.892;2022-08-18T12:29:40;101100;;;31.8;36.0
47710;BME280;33473;51.640;5.892;2022-08-18T12:43:00;101200;;;32.3;35.0
47710;BME280;33473;51.640;5.892;2022-08-18T12:56:20;101200;;;32.4;35.0
47710;BME280;33473;51.640;5.892;2022-08-18T13:09:39;101200;;;31.9;35.0
47710;BME280;33473;51.640;5.892;2022-08-18T13:23:01;101200;;;31.3;36.0
47710;BME280;33473;51.640;5.892;2022-08-18T13:36:20;101200;;;31.0;38.0
47710;BME280;33473;51.640;5.892;2022-08-18T13:49:42;101200;;;30.7;39.0
47710;BME280;33473;51.640;5.892;2022-08-18T14:03:01;101200;;;30.6;38.0
47710;BME280;33473;51.640;5.892;2022-08-18T14:16:21;101200;;;30.5;38.0
47710;BME280;33473;51.640;5.892;2022-08-18T14:29:42;101100;;;30.5;37.0
47710;BME280;33473;51.640;5.892;2022-08-18T14:43:03;101100;;;30.4;40.0
47710;BME280;33473;51.640;5.892;2022-08-18T14:56:23;101200;;;30.2;39.0
47710;BME280;33473;51.640;5.892;2022-08-18T15:09:44;101100;;;30.3;41.0
47710;BME280;33473;51.640;5.892;2022-08-18T15:23:04;101100;;;31.3;38.0
47710;BME280;33473;51.640;5.892;2022-08-18T15:36:25;101100;;;32.0;35.0
47710;BME280;33473;51.640;5.892;2022-08-18T15:49:46;101100;;;32.2;35.0
47710;BME280;33473;51.640;5.892;2022-08-18T16:03:08;101100;;;32.3;35.0
47710;BME280;33473;51.640;5.892;2022-08-18T16:16:27;101100;;;32.4;34.0
47710;BME280;33473;51.640;5.892;2022-08-18T16:29:49;101100;;;31.8;35.0
47710;BME280;33473;51.640;5.892;2022-08-18T16:43:10;101100;;;31.6;36.0
47710;BME280;33473;51.640;5.892;2022-08-18T16:56:30;101100;;;31.2;37.0
47710;BME280;33473;51.640;5.892;2022-08-18T17:09:49;101100;;;30.8;37.0
47710;BME280;33473;51.640;5.892;2022-08-18T17:23:11;101100;;;30.4;39.0
47710;BME280;33473;51.640;5.892;2022-08-18T17:36:30;101100;;;30.0;40.0
47710;BME280;33473;51.640;5.892;2022-08-18T17:49:50;101100;;;29.6;41.0
47710;BME280;33473;51.640;5.892;2022-08-18T18:03:11;101100;;;29.2;43.0
47710;BME280;33473;51.640;5.892;2022-08-18T18:16:32;101100;;;29.0;43.0
47710;BME280;33473;51.640;5.892;2022-08-18T18:29:52;101100;;;28.8;44.0
47710;BME280;33473;51.640;5.892;2022-08-18T18:43:13;101100;;;28.6;46.0
47710;BME280;33473;51.640;5.892;2022-08-18T18:56:33;101100;;;28.1;46.0
47710;BME280;33473;51.640;5.892;2022-08-18T19:09:54;101100;;;27.6;48.0
47710;BME280;33473;51.640;5.892;2022-08-18T19:23:15;101100;;;27.2;49.0
47710;BME280;33473;51.640;5.892;2022-08-18T19:36:35;101100;;;26.7;49.0
47710;BME280;33473;51.640;5.892;2022-08-18T19:49:55;101100;;;26.3;50.0
47710;BME280;33473;51.640;5.892;2022-08-18T20:03:14;101100;;;25.8;51.0
47710;BME280;33473;51.640;5.892;2022-08-18T20:16:34;101200;;;25.5;52.0
47710;BME280;33473;51.640;5.892;2022-08-18T20:29:55;101200;;;25.2;52.0
47710;BME280;33473;51.640;5.892;2022-08-18T20:43:16;101200;;;24.9;53.0
47710;BME280;33473;51.640;5.892;2022-08-18T20:56:36;101200;;;24.7;54.0
47710;BME280;33473;51.640;5.892;2022-08-18T21:09:57;101200;;;24.4;54.0
47710;BME280;33473;51.640;5.892;2022-08-18T21:23:17;101200;;;24.2;55.0
47710;BME280;33473;51.640;5.892;2022-08-18T21:36:36;101200;;;24.0;56.0
47710;BME280;33473;51.640;5.892;2022-08-18T21:49:56;101200;;;23.9;55.0
47710;BME280;33473;51.640;5.892;2022-08-18T22:03:16;101200;;;23.8;55.0
47710;BME280;33473;51.640;5.892;2022-08-18T22:16:35;101200;;;23.5;55.0
47710;BME280;33473;51.640;5.892;2022-08-18T22:29:57;101200;;;23.3;55.0
47710;BME280;33473;51.640;5.892;2022-08-18T22:43:18;101200;;;23.1;56.0
47710;BME280;33473;51.640;5.892;2022-08-18T22:56:39;101200;;;23.0;56.0
47710;BME280;33473;51.640;5.892;2022-08-18T23:09:59;101200;;;22.9;57.0
47710;BME280;33473;51.640;5.892;2022-08-18T23:23:19;101200;;;22.7;56.0
47710;BME280;33473;51.640;5.892;2022-08-18T23:36:40;101200;;;22.5;56.0
47710;BME280;33473;51.640;5.892;2022-08-18T23:50:01;101200;;;22.3;56.0
